createdAt,value
2017-07-26T00:00:35.149Z,1.30
2017-07-26T00:01:31.468Z,1.40
2017-07-26T00:02:27.767Z,1.10
2017-07-26T00:03:24.072Z,1.50
2017-07-26T00:04:20.355Z,1.30
2017-07-26T00:05:17.639Z,1.30
2017-07-26T00:06:13.976Z,1.30
2017-07-26T00:07:12.027Z,1.40
2017-07-26T00:08:08.576Z,1.30
2017-07-26T00:09:04.889Z,1.50
2017-07-26T00:10:01.204Z,1.30
2017-07-26T00:10:57.535Z,1.60
2017-07-26T00:11:53.827Z,1.40
2017-07-26T00:12:50.097Z,1.50
2017-07-26T00:13:46.396Z,1.50
2017-07-26T00:14:42.680Z,1.50
2017-07-26T00:15:39.012Z,1.60
2017-07-26T00:16:35.359Z,1.50
2017-07-26T00:17:31.672Z,1.30
2017-07-26T00:18:27.977Z,1.00
2017-07-26T00:19:24.321Z,1.70
2017-07-26T00:20:20.620Z,1.30
2017-07-26T00:21:16.931Z,1.60
2017-07-26T00:22:13.248Z,1.90
2017-07-26T00:23:09.579Z,1.70
2017-07-26T00:24:05.919Z,1.50
2017-07-26T00:25:02.337Z,1.50
2017-07-26T00:25:58.640Z,1.50
2017-07-26T00:26:54.973Z,1.80
2017-07-26T00:27:51.295Z,1.60
2017-07-26T00:28:47.637Z,1.70
2017-07-26T00:29:43.947Z,1.90
2017-07-26T00:30:40.260Z,2.00
2017-07-26T00:31:36.552Z,2.30
2017-07-26T00:32:32.880Z,1.70
2017-07-26T00:33:29.200Z,1.70
2017-07-26T00:34:25.523Z,1.70
2017-07-26T00:35:21.833Z,1.70
2017-07-26T00:36:18.128Z,1.70
2017-07-26T00:37:14.455Z,1.70
2017-07-26T00:38:10.803Z,1.90
2017-07-26T00:39:07.122Z,1.90
2017-07-26T00:40:03.446Z,1.90
2017-07-26T00:40:59.773Z,1.90
2017-07-26T00:41:56.084Z,2.10
2017-07-26T00:42:52.391Z,1.80
2017-07-26T00:43:48.716Z,2.50
2017-07-26T00:44:45.037Z,2.10
2017-07-26T00:45:41.365Z,2.50
2017-07-26T00:46:37.728Z,1.80
2017-07-26T00:47:34.020Z,2.20
2017-07-26T00:48:30.325Z,1.90
2017-07-26T00:49:26.648Z,1.90
2017-07-26T00:50:22.956Z,2.30
2017-07-26T00:51:19.301Z,2.30
2017-07-26T00:52:15.626Z,2.00
2017-07-26T00:53:11.928Z,2.70
2017-07-26T00:54:08.257Z,2.20
2017-07-26T00:55:04.584Z,2.10
2017-07-26T00:56:00.896Z,2.30
2017-07-26T00:56:57.227Z,2.30
2017-07-26T00:57:53.563Z,2.40
2017-07-26T00:58:49.876Z,2.60
2017-07-26T00:59:46.238Z,2.00
2017-07-26T01:00:42.561Z,2.20
2017-07-26T01:01:38.891Z,2.20
2017-07-26T01:02:35.251Z,2.80
2017-07-26T01:03:31.605Z,2.20
2017-07-26T01:04:27.967Z,2.30
2017-07-26T01:05:24.327Z,2.30
2017-07-26T01:06:20.689Z,2.70
2017-07-26T01:07:17.044Z,2.50
2017-07-26T01:08:13.380Z,2.00
2017-07-26T01:09:09.725Z,2.40
2017-07-26T01:10:06.110Z,2.30
2017-07-26T01:11:02.431Z,2.70
2017-07-26T01:11:58.747Z,1.90
2017-07-26T01:12:55.116Z,2.80
2017-07-26T01:13:51.452Z,2.40
2017-07-26T01:14:47.817Z,2.50
2017-07-26T01:15:44.141Z,2.40
2017-07-26T01:16:40.472Z,2.40
2017-07-26T01:17:36.777Z,2.60
2017-07-26T01:18:33.100Z,2.90
2017-07-26T01:19:29.408Z,2.80
2017-07-26T01:20:25.757Z,2.00
2017-07-26T01:21:22.075Z,2.90
2017-07-26T01:22:18.388Z,2.40
2017-07-26T01:23:14.699Z,2.60
2017-07-26T01:24:11.015Z,2.60
2017-07-26T01:25:07.340Z,2.30
2017-07-26T01:26:03.668Z,2.90
2017-07-26T01:26:59.996Z,2.40
2017-07-26T01:27:56.377Z,3.00
2017-07-26T01:28:52.718Z,2.00
2017-07-26T01:29:49.051Z,2.70
2017-07-26T01:30:45.359Z,3.10
2017-07-26T01:31:41.697Z,3.00
2017-07-26T01:32:38.008Z,2.60
2017-07-26T01:33:34.385Z,3.00
2017-07-26T01:34:30.722Z,2.60
2017-07-26T01:35:27.044Z,2.90
2017-07-26T01:36:23.403Z,3.00
2017-07-26T01:37:19.808Z,3.60
2017-07-26T01:38:16.192Z,3.00
2017-07-26T01:39:12.535Z,3.00
2017-07-26T01:40:08.902Z,2.60
2017-07-26T01:41:05.204Z,2.60
2017-07-26T01:42:01.632Z,3.20
2017-07-26T01:42:57.949Z,3.60
2017-07-26T01:43:54.288Z,3.40
2017-07-26T01:44:50.613Z,3.40
2017-07-26T01:45:46.953Z,3.10
2017-07-26T01:46:43.283Z,3.50
2017-07-26T01:47:39.657Z,3.10
2017-07-26T01:48:36.036Z,3.40
2017-07-26T01:49:32.411Z,2.90
2017-07-26T01:50:28.841Z,3.50
2017-07-26T01:51:25.217Z,2.90
2017-07-26T01:52:21.600Z,2.90
2017-07-26T01:53:17.944Z,3.70
2017-07-26T01:54:14.238Z,3.30
2017-07-26T01:55:10.560Z,3.20
2017-07-26T01:56:06.893Z,3.30
2017-07-26T01:57:03.248Z,3.60
2017-07-26T01:57:59.596Z,3.50
2017-07-26T01:58:55.953Z,3.10
2017-07-26T01:59:52.283Z,3.20
2017-07-26T02:00:48.607Z,3.70
2017-07-26T02:01:44.928Z,3.50
2017-07-26T02:02:41.247Z,3.50
2017-07-26T02:03:37.593Z,3.90
2017-07-26T02:04:33.934Z,4.00
2017-07-26T02:05:30.317Z,3.30
2017-07-26T02:06:26.657Z,3.20
2017-07-26T02:07:23.008Z,3.40
2017-07-26T02:08:19.372Z,4.00
2017-07-26T02:09:15.697Z,3.60
2017-07-26T02:10:12.017Z,3.70
2017-07-26T02:11:08.359Z,4.40
2017-07-26T02:12:04.727Z,3.80
2017-07-26T02:13:01.184Z,3.00
2017-07-26T02:13:57.495Z,4.00
2017-07-26T02:14:53.815Z,3.90
2017-07-26T02:15:50.132Z,3.70
2017-07-26T02:16:46.522Z,4.10
2017-07-26T02:17:42.864Z,4.30
2017-07-26T02:18:39.216Z,4.40
2017-07-26T02:19:35.572Z,4.00
2017-07-26T02:20:31.929Z,4.50
2017-07-26T02:21:28.316Z,4.40
2017-07-26T02:22:24.630Z,4.30
2017-07-26T02:23:20.932Z,3.80
2017-07-26T02:24:17.276Z,4.90
2017-07-26T02:25:13.595Z,3.60
2017-07-26T02:26:09.940Z,4.70
2017-07-26T02:27:06.307Z,4.20
2017-07-26T02:28:02.680Z,3.90
2017-07-26T02:28:59.117Z,3.80
2017-07-26T02:29:55.451Z,4.20
2017-07-26T02:30:51.798Z,4.40
2017-07-26T02:31:48.180Z,4.00
2017-07-26T02:32:44.519Z,4.30
2017-07-26T02:33:40.872Z,4.30
2017-07-26T02:34:37.216Z,4.30
2017-07-26T02:35:33.559Z,4.10
2017-07-26T02:36:29.902Z,5.00
2017-07-26T02:37:26.236Z,5.00
2017-07-26T02:38:22.616Z,4.50
2017-07-26T02:39:18.953Z,4.70
2017-07-26T02:40:15.281Z,4.40
2017-07-26T02:41:11.636Z,4.80
2017-07-26T02:42:07.977Z,4.60
2017-07-26T02:43:04.328Z,4.70
2017-07-26T02:44:00.656Z,4.00
2017-07-26T02:44:57.007Z,4.50
2017-07-26T02:45:53.328Z,4.70
2017-07-26T02:46:49.639Z,5.70
2017-07-26T02:47:45.972Z,4.80
2017-07-26T02:48:42.463Z,4.70
2017-07-26T02:49:38.931Z,4.60
2017-07-26T02:50:35.252Z,5.00
2017-07-26T02:51:31.560Z,5.10
2017-07-26T02:52:27.878Z,4.30
2017-07-26T02:53:24.217Z,4.60
2017-07-26T02:54:20.529Z,5.40
2017-07-26T02:55:16.872Z,4.90
2017-07-26T02:56:13.168Z,4.90
2017-07-26T02:57:09.472Z,5.30
2017-07-26T02:58:05.804Z,4.80
2017-07-26T02:59:02.131Z,5.10
2017-07-26T02:59:58.465Z,4.80
2017-07-26T03:00:54.765Z,5.10
2017-07-26T03:01:51.152Z,5.60
2017-07-26T03:02:47.552Z,6.40
2017-07-26T03:03:43.847Z,5.40
2017-07-26T03:04:40.204Z,5.80
2017-07-26T03:05:36.528Z,5.40
2017-07-26T03:06:32.836Z,5.30
2017-07-26T03:07:29.156Z,5.30
2017-07-26T03:08:25.514Z,5.70
2017-07-26T03:09:21.807Z,6.00
2017-07-26T03:10:18.160Z,6.00
2017-07-26T03:11:14.480Z,5.50
2017-07-26T03:12:10.803Z,5.50
2017-07-26T03:13:07.117Z,5.90
2017-07-26T03:14:03.496Z,6.30
2017-07-26T03:14:59.872Z,5.70
2017-07-26T03:15:56.200Z,6.80
2017-07-26T03:16:52.524Z,5.50
2017-07-26T03:17:48.870Z,5.80
2017-07-26T03:18:45.230Z,6.20
2017-07-26T03:19:41.540Z,6.40
2017-07-26T03:20:37.895Z,6.60
2017-07-26T03:21:34.204Z,6.50
2017-07-26T03:22:30.496Z,6.40
2017-07-26T03:23:26.784Z,6.50
2017-07-26T03:24:23.079Z,6.60
2017-07-26T03:25:19.348Z,6.60
2017-07-26T03:26:15.639Z,6.80
2017-07-26T03:27:12.601Z,6.40
2017-07-26T03:28:08.886Z,7.60
2017-07-26T03:29:05.171Z,7.40
2017-07-26T03:30:01.487Z,6.50
2017-07-26T03:30:57.836Z,7.60
2017-07-26T03:31:54.171Z,7.00
2017-07-26T03:32:50.540Z,7.20
2017-07-26T03:33:46.854Z,7.50
2017-07-26T03:34:43.133Z,7.50
2017-07-26T03:35:39.441Z,7.40
2017-07-26T03:36:35.765Z,7.80
2017-07-26T03:37:32.073Z,7.70
2017-07-26T03:38:28.383Z,7.40
2017-07-26T03:39:24.688Z,7.90
2017-07-26T03:40:21.018Z,8.00
2017-07-26T03:41:17.344Z,8.20
2017-07-26T03:42:13.705Z,7.40
2017-07-26T03:43:10.035Z,7.30
2017-07-26T03:44:06.381Z,7.20
2017-07-26T03:45:02.689Z,8.30
2017-07-26T03:45:59.031Z,7.90
2017-07-26T03:46:55.359Z,8.30
2017-07-26T03:47:51.634Z,8.10
2017-07-26T03:48:47.927Z,8.90
2017-07-26T03:49:44.210Z,7.60
2017-07-26T03:50:40.491Z,8.10
2017-07-26T03:51:36.783Z,8.10
2017-07-26T03:52:33.088Z,8.80
2017-07-26T03:53:29.358Z,9.10
2017-07-26T03:54:25.640Z,9.80
2017-07-26T03:55:21.925Z,9.10
2017-07-26T03:56:18.212Z,9.20
2017-07-26T03:57:14.536Z,8.90
2017-07-26T03:58:10.849Z,9.10
2017-07-26T03:59:07.145Z,9.50
2017-07-26T04:00:03.439Z,9.10
2017-07-26T04:00:59.712Z,9.90
2017-07-26T04:01:55.999Z,8.70
2017-07-26T04:02:52.284Z,9.30
2017-07-26T04:03:48.640Z,9.30
2017-07-26T04:04:44.964Z,10.20
2017-07-26T04:05:41.291Z,10.90
2017-07-26T04:06:37.628Z,10.30
2017-07-26T04:07:33.951Z,10.20
2017-07-26T04:08:30.296Z,9.60
2017-07-26T04:09:26.595Z,10.00
2017-07-26T04:10:22.867Z,11.00
2017-07-26T04:11:19.136Z,10.70
2017-07-26T04:12:15.415Z,10.50
2017-07-26T04:13:11.703Z,10.70
2017-07-26T04:14:07.983Z,10.70
2017-07-26T04:15:04.293Z,9.70
2017-07-26T04:16:00.628Z,9.80
2017-07-26T04:16:56.896Z,9.80
2017-07-26T04:17:53.205Z,11.20
2017-07-26T04:18:49.619Z,11.30
2017-07-26T04:19:45.919Z,9.70
2017-07-26T04:20:42.195Z,10.80
2017-07-26T04:21:38.480Z,10.30
2017-07-26T04:22:34.762Z,11.30
2017-07-26T04:23:31.081Z,10.80
2017-07-26T04:24:27.362Z,11.40
2017-07-26T04:25:23.642Z,11.30
2017-07-26T04:26:26.860Z,12.40
2017-07-26T04:27:23.252Z,10.30
2017-07-26T04:28:19.628Z,10.90
2017-07-26T04:29:15.985Z,11.80
2017-07-26T04:30:12.290Z,12.20
2017-07-26T04:31:08.571Z,12.20
2017-07-26T04:32:04.869Z,12.70
2017-07-26T04:33:01.145Z,11.70
2017-07-26T04:33:57.462Z,12.10
2017-07-26T04:34:53.750Z,11.60
2017-07-26T04:35:50.031Z,12.10
2017-07-26T04:36:46.327Z,11.10
2017-07-26T04:37:42.614Z,12.90
2017-07-26T04:38:38.891Z,12.90
2017-07-26T04:39:35.198Z,13.30
2017-07-26T04:40:31.474Z,12.00
2017-07-26T04:41:27.758Z,13.10
2017-07-26T04:42:24.059Z,13.50
2017-07-26T04:43:20.364Z,12.40
2017-07-26T04:44:16.720Z,13.30
2017-07-26T04:45:13.019Z,13.50
2017-07-26T04:46:09.344Z,13.40
2017-07-26T04:47:05.635Z,12.20
2017-07-26T04:48:01.919Z,13.30
2017-07-26T04:48:58.215Z,12.10
2017-07-26T04:49:54.521Z,13.30
2017-07-26T04:50:50.819Z,13.90
2017-07-26T04:51:47.108Z,14.00
2017-07-26T04:52:43.393Z,13.50
2017-07-26T04:53:39.675Z,13.90
2017-07-26T04:54:35.967Z,15.10
2017-07-26T04:55:32.253Z,14.30
2017-07-26T04:56:28.539Z,14.30
2017-07-26T04:57:24.836Z,13.20
2017-07-26T04:58:21.155Z,14.00
2017-07-26T04:59:17.458Z,13.50
2017-07-26T05:00:13.726Z,14.70
2017-07-26T05:01:10.007Z,14.10
2017-07-26T05:02:06.287Z,14.60
2017-07-26T05:03:02.573Z,13.60
2017-07-26T05:03:58.848Z,14.50
2017-07-26T05:04:55.148Z,13.50
2017-07-26T05:05:51.435Z,14.30
2017-07-26T05:06:47.724Z,12.70
2017-07-26T05:07:44.006Z,15.10
2017-07-26T05:08:40.320Z,15.40
2017-07-26T05:09:36.619Z,14.30
2017-07-26T05:10:32.952Z,14.10
2017-07-26T05:11:29.519Z,14.40
2017-07-26T05:12:25.791Z,15.80
2017-07-26T05:13:22.111Z,14.60
2017-07-26T05:14:18.378Z,15.10
2017-07-26T05:15:14.734Z,13.40
2017-07-26T05:16:11.075Z,15.70
2017-07-26T05:17:07.418Z,14.70
2017-07-26T05:18:03.717Z,14.50
2017-07-26T05:18:59.999Z,13.40
2017-07-26T05:19:56.278Z,14.60
2017-07-26T05:20:52.586Z,14.60
2017-07-26T05:21:48.863Z,14.50
2017-07-26T05:22:45.155Z,14.90
2017-07-26T05:23:41.456Z,14.70
2017-07-26T05:24:37.732Z,14.20
2017-07-26T05:25:34.009Z,16.20
2017-07-26T05:26:30.314Z,14.60
2017-07-26T05:27:26.619Z,14.30
2017-07-26T05:28:22.899Z,16.50
2017-07-26T05:29:19.184Z,15.10
2017-07-26T05:30:15.448Z,15.00
2017-07-26T05:31:11.739Z,14.80
2017-07-26T05:32:08.110Z,16.20
2017-07-26T05:33:04.404Z,15.80
2017-07-26T05:34:00.703Z,15.90
2017-07-26T05:34:57.020Z,16.10
2017-07-26T05:35:53.313Z,14.60
2017-07-26T05:36:49.640Z,16.40
2017-07-26T05:37:45.939Z,14.80
2017-07-26T05:38:42.228Z,15.20
2017-07-26T05:39:38.503Z,16.50
2017-07-26T05:40:34.782Z,15.50
2017-07-26T05:41:31.061Z,15.20
2017-07-26T05:42:27.346Z,16.20
2017-07-26T05:43:23.656Z,16.10
2017-07-26T05:44:19.951Z,16.40
2017-07-26T05:45:16.259Z,15.80
2017-07-26T05:46:12.539Z,15.60
2017-07-26T05:47:08.838Z,15.90
2017-07-26T05:48:05.121Z,15.80
2017-07-26T05:49:01.399Z,15.10
2017-07-26T05:49:57.666Z,14.90
2017-07-26T05:50:53.956Z,14.70
2017-07-26T05:51:50.258Z,16.90
2017-07-26T05:52:46.580Z,15.80
2017-07-26T05:53:42.895Z,15.60
2017-07-26T05:54:39.204Z,16.20
2017-07-26T05:55:35.624Z,16.70
2017-07-26T05:56:31.955Z,15.40
2017-07-26T05:57:28.296Z,16.40
2017-07-26T05:58:24.605Z,15.90
2017-07-26T05:59:20.935Z,16.40
2017-07-26T06:00:17.263Z,15.30
2017-07-26T06:01:13.597Z,16.70
2017-07-26T06:02:09.953Z,14.60
2017-07-26T06:03:06.304Z,15.80
2017-07-26T06:04:02.614Z,16.60
2017-07-26T06:04:58.928Z,16.30
2017-07-26T06:05:55.252Z,15.20
2017-07-26T06:06:51.576Z,15.70
2017-07-26T06:07:47.922Z,15.30
2017-07-26T06:08:44.268Z,16.80
2017-07-26T06:09:40.574Z,14.50
2017-07-26T06:10:36.910Z,15.90
2017-07-26T06:11:33.235Z,14.80
2017-07-26T06:12:31.540Z,14.60
2017-07-26T06:13:27.851Z,14.40
2017-07-26T06:14:24.142Z,14.80
2017-07-26T06:15:20.471Z,15.50
2017-07-26T06:16:16.743Z,16.10
2017-07-26T06:17:13.028Z,15.50
2017-07-26T06:18:09.331Z,14.70
2017-07-26T06:19:05.623Z,15.00
2017-07-26T06:20:01.923Z,14.00
2017-07-26T06:20:58.204Z,14.40
2017-07-26T06:21:54.498Z,14.70
2017-07-26T06:22:50.903Z,15.40
2017-07-26T06:23:47.240Z,15.70
2017-07-26T06:24:43.580Z,14.50
2017-07-26T06:25:39.887Z,14.40
2017-07-26T06:26:36.201Z,13.70
2017-07-26T06:27:32.545Z,14.20
2017-07-26T06:28:28.831Z,15.20
2017-07-26T06:29:25.153Z,13.30
2017-07-26T06:30:21.450Z,14.90
2017-07-26T06:31:17.791Z,14.70
2017-07-26T06:32:14.104Z,14.60
2017-07-26T06:33:10.424Z,14.50
2017-07-26T06:34:06.756Z,16.20
2017-07-26T06:35:03.048Z,15.20
2017-07-26T06:35:59.372Z,14.50
2017-07-26T06:36:55.696Z,14.30
2017-07-26T06:37:51.987Z,14.20
2017-07-26T06:38:48.315Z,13.00
2017-07-26T06:39:44.628Z,15.20
2017-07-26T06:40:40.933Z,14.10
2017-07-26T06:41:37.244Z,15.20
2017-07-26T06:42:33.552Z,16.50
2017-07-26T06:43:29.865Z,13.60
2017-07-26T06:44:26.193Z,14.90
2017-07-26T06:45:22.525Z,14.70
2017-07-26T06:46:18.833Z,14.30
2017-07-26T06:47:15.200Z,15.50
2017-07-26T06:48:11.491Z,15.20
2017-07-26T06:49:08.075Z,14.30
2017-07-26T06:50:04.377Z,13.50
2017-07-26T06:51:00.664Z,15.50
2017-07-26T06:51:56.960Z,13.60
2017-07-26T06:52:53.255Z,15.10
2017-07-26T06:53:49.545Z,15.00
2017-07-26T06:54:45.888Z,15.00
2017-07-26T06:55:42.183Z,14.40
2017-07-26T06:56:38.471Z,14.60
2017-07-26T06:57:34.747Z,13.90
2017-07-26T06:58:31.036Z,15.70
2017-07-26T06:59:27.327Z,13.60
2017-07-26T07:00:23.618Z,14.30
2017-07-26T07:01:19.904Z,13.70
2017-07-26T07:02:16.192Z,12.80
2017-07-26T07:03:12.482Z,13.80
2017-07-26T07:04:08.758Z,13.80
2017-07-26T07:05:05.047Z,14.50
2017-07-26T07:06:01.328Z,13.00
2017-07-26T07:06:57.611Z,14.80
2017-07-26T07:07:53.897Z,13.50
2017-07-26T07:08:50.319Z,13.50
2017-07-26T07:09:46.620Z,13.20
2017-07-26T07:10:42.927Z,13.60
2017-07-26T07:11:39.231Z,12.90
2017-07-26T07:12:35.538Z,14.00
2017-07-26T07:13:31.822Z,12.70
2017-07-26T07:14:28.121Z,11.90
2017-07-26T07:15:24.415Z,12.20
2017-07-26T07:16:20.698Z,11.80
2017-07-26T07:17:16.996Z,12.30
2017-07-26T07:18:13.297Z,12.40
2017-07-26T07:19:09.608Z,12.60
2017-07-26T07:20:05.967Z,11.00
2017-07-26T07:21:02.280Z,12.90
2017-07-26T07:21:58.582Z,11.30
2017-07-26T07:22:54.875Z,13.00
2017-07-26T07:23:51.157Z,11.80
2017-07-26T07:24:47.432Z,12.70
2017-07-26T07:25:43.738Z,13.20
2017-07-26T07:26:40.048Z,12.00
2017-07-26T07:27:36.343Z,13.10
2017-07-26T07:28:32.623Z,13.40
2017-07-26T07:29:28.888Z,12.70
2017-07-26T07:30:25.183Z,12.30
2017-07-26T07:31:21.467Z,12.00
2017-07-26T07:32:17.751Z,11.60
2017-07-26T07:33:14.019Z,12.60
2017-07-26T07:34:10.290Z,12.60
2017-07-26T07:35:06.565Z,12.50
2017-07-26T07:36:02.864Z,12.20
2017-07-26T07:36:59.163Z,13.50
2017-07-26T07:37:55.442Z,13.40
2017-07-26T07:38:51.743Z,12.80
2017-07-26T07:39:48.026Z,12.00
2017-07-26T07:40:44.350Z,12.60
2017-07-26T07:41:40.671Z,11.40
2017-07-26T07:42:36.952Z,12.60
2017-07-26T07:43:33.244Z,12.40
2017-07-26T07:44:29.540Z,12.20
2017-07-26T07:45:25.826Z,11.30
2017-07-26T07:46:22.123Z,11.90
2017-07-26T07:47:18.423Z,11.10
2017-07-26T07:48:14.724Z,11.20
2017-07-26T07:49:10.999Z,11.90
2017-07-26T07:50:07.295Z,11.10
2017-07-26T07:51:03.597Z,9.70
2017-07-26T07:51:59.904Z,9.30
2017-07-26T07:52:56.198Z,10.20
2017-07-26T07:53:52.502Z,10.20
2017-07-26T07:54:48.799Z,7.50
2017-07-26T07:55:45.106Z,7.70
2017-07-26T07:56:41.399Z,7.00
2017-07-26T07:57:37.696Z,5.60
2017-07-26T07:58:33.981Z,6.60
2017-07-26T07:59:30.287Z,5.80
2017-07-26T08:00:26.566Z,5.30
2017-07-26T08:01:22.847Z,5.30
2017-07-26T08:02:19.143Z,5.20
2017-07-26T08:03:15.423Z,4.60
2017-07-26T08:04:11.703Z,5.00
2017-07-26T08:05:08.000Z,4.80
2017-07-26T08:06:04.291Z,5.30
2017-07-26T08:07:00.621Z,4.90
2017-07-26T08:07:56.931Z,5.10
2017-07-26T08:08:53.232Z,4.20
2017-07-26T08:09:49.531Z,5.30
2017-07-26T08:10:45.824Z,4.70
2017-07-26T08:11:42.144Z,4.50
2017-07-26T08:12:38.555Z,5.80
2017-07-26T08:13:34.875Z,4.80
2017-07-26T08:14:31.178Z,4.30
2017-07-26T08:15:27.484Z,5.70
2017-07-26T08:16:23.767Z,4.70
2017-07-26T08:17:20.067Z,4.50
2017-07-26T08:18:16.355Z,4.20
2017-07-26T08:19:12.630Z,5.50
2017-07-26T08:20:08.921Z,4.30
2017-07-26T08:21:05.216Z,4.40
2017-07-26T08:22:01.528Z,4.70
2017-07-26T08:22:57.848Z,4.80
2017-07-26T08:23:54.151Z,5.30
2017-07-26T08:24:50.449Z,4.90
2017-07-26T08:25:46.751Z,4.80
2017-07-26T08:26:43.044Z,4.70
2017-07-26T08:27:39.331Z,4.80
2017-07-26T08:28:35.647Z,4.40
2017-07-26T08:29:31.939Z,5.00
2017-07-26T08:30:28.225Z,4.50
2017-07-26T08:31:24.527Z,5.10
2017-07-26T08:32:21.424Z,4.80
2017-07-26T08:33:17.756Z,4.80
2017-07-26T08:34:14.063Z,5.10
2017-07-26T08:35:10.346Z,4.90
2017-07-26T08:36:06.619Z,5.30
2017-07-26T08:37:03.811Z,5.00
2017-07-26T08:38:00.115Z,5.50
2017-07-26T08:38:56.432Z,5.30
2017-07-26T08:39:52.731Z,5.80
2017-07-26T08:40:48.997Z,5.50
2017-07-26T08:41:45.282Z,4.80
2017-07-26T08:42:41.567Z,5.20
2017-07-26T08:43:37.867Z,4.90
2017-07-26T08:44:34.156Z,5.70
2017-07-26T08:45:30.430Z,5.50
2017-07-26T08:46:26.729Z,6.00
2017-07-26T08:47:22.999Z,6.20
2017-07-26T08:48:19.287Z,6.20
2017-07-26T08:49:15.582Z,5.90
2017-07-26T08:50:11.881Z,6.90
2017-07-26T08:51:08.159Z,7.40
2017-07-26T08:52:04.441Z,7.40
2017-07-26T08:53:00.730Z,7.60
2017-07-26T08:53:57.045Z,7.80
2017-07-26T08:54:53.338Z,8.30
2017-07-26T08:55:49.669Z,8.30
2017-07-26T08:56:45.974Z,7.00
2017-07-26T08:57:42.260Z,7.40
2017-07-26T08:58:38.552Z,8.00
2017-07-26T08:59:34.859Z,7.80
2017-07-26T09:00:31.207Z,9.00
2017-07-26T09:01:27.512Z,8.00
2017-07-26T09:02:23.796Z,7.60
2017-07-26T09:03:20.075Z,9.30
2017-07-26T09:04:16.390Z,8.90
2017-07-26T09:05:12.682Z,10.20
2017-07-26T09:06:08.962Z,8.90
2017-07-26T09:07:05.243Z,9.40
2017-07-26T09:08:01.538Z,10.40
2017-07-26T09:08:57.826Z,9.80
2017-07-26T09:09:54.123Z,9.10
2017-07-26T09:10:50.412Z,9.40
2017-07-26T09:11:46.707Z,11.00
2017-07-26T09:12:43.005Z,10.30
2017-07-26T09:13:39.300Z,10.80
2017-07-26T09:14:35.632Z,10.50
2017-07-26T09:15:31.944Z,10.70
2017-07-26T09:16:28.227Z,9.80
2017-07-26T09:17:24.511Z,10.20
2017-07-26T09:18:20.775Z,11.00
2017-07-26T09:19:17.063Z,10.60
2017-07-26T09:20:13.366Z,10.50
2017-07-26T09:21:09.651Z,11.40
2017-07-26T09:22:05.960Z,10.70
2017-07-26T09:23:02.235Z,10.20
2017-07-26T09:23:58.636Z,10.40
2017-07-26T09:24:54.964Z,11.40
2017-07-26T09:25:51.243Z,11.50
2017-07-26T09:26:47.528Z,10.30
2017-07-26T09:27:43.815Z,10.90
2017-07-26T09:28:40.096Z,11.30
2017-07-26T09:29:36.388Z,11.50
2017-07-26T09:30:32.680Z,11.40
2017-07-26T09:31:28.962Z,10.40
2017-07-26T09:32:25.273Z,11.00
2017-07-26T09:33:21.555Z,10.50
2017-07-26T09:34:17.903Z,10.30
2017-07-26T09:35:14.191Z,11.40
2017-07-26T09:36:11.001Z,10.80
2017-07-26T09:37:07.283Z,10.00
2017-07-26T09:38:03.603Z,11.40
2017-07-26T09:38:59.911Z,10.90
2017-07-26T09:39:56.203Z,10.70
2017-07-26T09:40:52.511Z,11.20
2017-07-26T09:41:48.796Z,10.70
2017-07-26T09:42:45.091Z,11.10
2017-07-26T09:43:41.399Z,12.00
2017-07-26T09:44:37.819Z,11.00
2017-07-26T09:45:34.116Z,12.20
2017-07-26T09:46:30.399Z,11.10
2017-07-26T09:47:26.721Z,10.80
2017-07-26T09:48:22.986Z,11.00
2017-07-26T09:49:19.302Z,9.90
2017-07-26T09:50:15.670Z,12.40
2017-07-26T09:51:11.956Z,10.70
2017-07-26T09:52:08.236Z,10.80
2017-07-26T09:53:04.612Z,11.50
2017-07-26T09:54:00.950Z,11.00
2017-07-26T09:54:57.237Z,11.30
2017-07-26T09:55:53.560Z,11.10
2017-07-26T09:56:49.843Z,11.00
2017-07-26T09:57:46.122Z,12.30
2017-07-26T09:58:42.403Z,11.10
2017-07-26T09:59:38.671Z,11.50
2017-07-26T10:00:34.984Z,11.20
2017-07-26T10:01:31.601Z,10.70
2017-07-26T10:02:27.911Z,12.00
2017-07-26T10:03:24.189Z,11.40
2017-07-26T10:04:20.489Z,11.20
2017-07-26T10:05:16.780Z,11.00
2017-07-26T10:06:13.081Z,11.30
2017-07-26T10:07:09.411Z,10.90
2017-07-26T10:08:05.689Z,10.20
2017-07-26T10:09:01.997Z,10.00
2017-07-26T10:09:58.427Z,11.80
2017-07-26T10:10:54.759Z,10.90
2017-07-26T10:11:51.044Z,11.00
2017-07-26T10:12:47.360Z,10.90
2017-07-26T10:13:43.647Z,11.20
2017-07-26T10:14:39.928Z,10.70
2017-07-26T10:15:36.211Z,11.60
2017-07-26T10:16:32.511Z,10.00
2017-07-26T10:17:28.798Z,10.60
2017-07-26T10:18:25.099Z,11.00
2017-07-26T10:19:21.481Z,10.40
2017-07-26T10:20:17.922Z,10.90
2017-07-26T10:21:14.214Z,11.40
2017-07-26T10:22:10.498Z,12.40
2017-07-26T10:23:06.772Z,12.10
2017-07-26T10:24:03.060Z,9.20
2017-07-26T10:24:59.351Z,10.90
2017-07-26T10:25:55.660Z,11.60
2017-07-26T10:26:52.090Z,11.10
2017-07-26T10:27:48.363Z,10.60
2017-07-26T10:28:44.668Z,10.50
2017-07-26T10:29:40.953Z,10.40
2017-07-26T10:30:37.233Z,11.20
2017-07-26T10:31:33.506Z,10.40
2017-07-26T10:32:29.821Z,10.40
2017-07-26T10:33:26.384Z,10.00
2017-07-26T10:34:22.671Z,10.10
2017-07-26T10:35:18.963Z,10.00
2017-07-26T10:36:15.304Z,10.10
2017-07-26T10:37:11.600Z,9.80
2017-07-26T10:38:07.898Z,11.10
2017-07-26T10:39:04.195Z,10.20
2017-07-26T10:40:00.520Z,10.30
2017-07-26T10:40:56.799Z,10.30
2017-07-26T10:41:53.159Z,10.40
2017-07-26T10:42:49.459Z,10.30
2017-07-26T10:43:45.741Z,9.90
2017-07-26T10:44:42.019Z,9.10
2017-07-26T10:45:38.309Z,9.70
2017-07-26T10:46:34.708Z,9.30
2017-07-26T10:47:30.991Z,9.60
2017-07-26T10:48:27.274Z,9.20
2017-07-26T10:49:23.579Z,9.20
2017-07-26T10:50:19.855Z,9.80
2017-07-26T10:51:16.144Z,9.80
2017-07-26T10:52:12.434Z,9.40
2017-07-26T10:53:08.808Z,9.20
2017-07-26T10:54:05.100Z,10.00
2017-07-26T10:55:01.385Z,9.60
2017-07-26T10:55:57.681Z,8.70
2017-07-26T10:56:53.968Z,9.10
2017-07-26T10:57:50.259Z,10.40
2017-07-26T10:58:46.593Z,9.10
2017-07-26T10:59:42.903Z,9.30
2017-07-26T11:00:39.208Z,8.30
2017-07-26T11:01:35.471Z,9.50
2017-07-26T11:02:31.760Z,8.60
2017-07-26T11:03:28.106Z,8.30
2017-07-26T11:04:24.399Z,8.70
2017-07-26T11:05:20.740Z,8.70
2017-07-26T11:06:17.056Z,8.20
2017-07-26T11:07:13.349Z,8.30
2017-07-26T11:08:09.633Z,8.60
2017-07-26T11:09:05.944Z,7.90
2017-07-26T11:10:02.234Z,8.40
2017-07-26T11:10:58.522Z,9.00
2017-07-26T11:11:54.801Z,8.40
2017-07-26T11:12:51.171Z,8.20
2017-07-26T11:13:47.451Z,8.40
2017-07-26T11:14:43.761Z,8.10
2017-07-26T11:15:40.035Z,7.60
2017-07-26T11:16:36.387Z,8.00
2017-07-26T11:17:32.671Z,8.40
2017-07-26T11:18:28.958Z,8.80
2017-07-26T11:19:25.271Z,7.80
2017-07-26T11:20:21.560Z,7.70
2017-07-26T11:21:17.855Z,8.60
2017-07-26T11:22:14.208Z,8.60
2017-07-26T11:23:10.523Z,9.10
2017-07-26T11:24:06.818Z,7.60
2017-07-26T11:25:03.148Z,7.80
2017-07-26T11:25:59.446Z,8.20
2017-07-26T11:26:55.767Z,9.40
2017-07-26T11:27:52.075Z,8.00
2017-07-26T11:28:48.389Z,7.90
2017-07-26T11:29:44.683Z,7.80
2017-07-26T11:30:40.980Z,8.10
2017-07-26T11:31:37.290Z,7.90
2017-07-26T11:32:33.586Z,7.60
2017-07-26T11:33:29.904Z,7.90
2017-07-26T11:34:26.209Z,7.70
2017-07-26T11:35:22.526Z,8.00
2017-07-26T11:36:18.806Z,8.70
2017-07-26T11:37:15.111Z,8.20
2017-07-26T11:38:11.415Z,7.50
2017-07-26T11:39:07.755Z,6.20
2017-07-26T11:40:04.071Z,7.30
2017-07-26T11:41:00.386Z,6.70
2017-07-26T11:41:56.675Z,7.50
2017-07-26T11:42:52.991Z,7.60
2017-07-26T11:43:49.309Z,7.80
2017-07-26T11:44:45.636Z,8.20
2017-07-26T11:45:41.943Z,8.20
2017-07-26T11:46:38.236Z,8.20
2017-07-26T11:47:34.552Z,8.70
2017-07-26T11:48:30.855Z,8.50
2017-07-26T11:49:27.147Z,8.30
2017-07-26T11:50:23.468Z,8.40
2017-07-26T11:51:19.843Z,8.70
2017-07-26T11:52:16.184Z,9.00
2017-07-26T11:53:12.483Z,8.60
2017-07-26T11:54:08.768Z,8.90
2017-07-26T11:55:05.051Z,7.80
2017-07-26T11:56:01.343Z,8.30
2017-07-26T11:56:57.626Z,8.70
2017-07-26T11:57:53.959Z,8.90
2017-07-26T11:58:50.285Z,9.20
2017-07-26T11:59:46.602Z,8.90
2017-07-26T12:00:42.892Z,9.40
2017-07-26T12:01:39.191Z,8.60
2017-07-26T12:02:35.484Z,8.40
2017-07-26T12:03:31.763Z,7.50
2017-07-26T12:04:28.054Z,7.70
2017-07-26T12:05:24.318Z,8.10
2017-07-26T12:06:20.768Z,6.60
2017-07-26T12:07:17.155Z,7.70
2017-07-26T12:08:13.502Z,8.10
2017-07-26T12:09:09.861Z,8.00
2017-07-26T12:10:06.148Z,8.00
2017-07-26T12:11:02.439Z,7.00
2017-07-26T12:11:58.773Z,7.20
2017-07-26T12:12:55.088Z,8.70
2017-07-26T12:13:51.512Z,7.50
2017-07-26T12:14:47.879Z,7.20
2017-07-26T12:15:49.220Z,7.90
2017-07-26T12:16:45.550Z,7.20
2017-07-26T12:17:41.894Z,7.70
2017-07-26T12:18:38.205Z,7.50
2017-07-26T12:19:34.529Z,7.00